world map with VAJJ marked

VAJJ - Airport

This information may not be accurate or current and is not valid for navigation or flight planning. No warranty of fitness for any purpose is made or implied.

flag of India

Donate via PayPal

Additional information is available on the NEW Great Circle Mapper

Location
City:  Mumbai, Maharashtra, India
Near (Alt.):Bombay
Name:Juhu Aerodrome
ICAO:VAJJ

Details
Type:Airport (Aerodrome, Airfield)
Latitude:19°05'51"N (19.097500)
Longitude:72°50'02"E (72.833889)
Elevation:13 ft (4 m)
Runways:unknown number
Longest:2379 × 98 ft (725 × 30 m)

Time
Timezone:UTC+5:30 (DST+7:30)
Local Time:

Weather
METAR:VAJJ  151230Z 35012KT 3000 HZ FEW020 SCT100 27/24 Q1014 NOSIG

Related Locations
Nearby:
Farthest:IPC: 11858 mi / 19083 km
Easter Island (Isla de Pascua, Rapa Nui) [Mataveri Intl], VS, CL

Find:

   beyond  
but within

Other Information
Maps:
Sources:

  


 


Great Circle Mapper   Great Circle Mapper
Great Circle Mapper FAQ   Great Circle Mapper FAQ
  Karl's Home Page
KLSē   KLSē Home
   GC on Facebook
Airlines of the World   Airlines of the World
Donate via PayPal


Copyright © 2004-2017, Karl L. Swartz. All rights reserved.
All trademarks mentioned herein belong to their respective owners.

Please see credits for attribution and copyright information.

Karl Swartz <karl@kls2.com>
  Powered by FreeBSD
Valid HTML 4.01!
Labeled with ICRA
hCard Microformat
Geo Microformat